createdAt,value
2017-06-12T00:02:23.993Z,6.37
2017-06-12T00:04:50.651Z,5.40
2017-06-12T00:07:17.301Z,6.83
2017-06-12T00:09:43.999Z,4.30
2017-06-12T00:12:10.654Z,4.67
2017-06-12T00:14:37.310Z,4.03
2017-06-12T00:17:04.016Z,5.00
2017-06-12T00:19:30.670Z,5.63
2017-06-12T00:21:57.320Z,6.73
2017-06-12T00:24:23.991Z,7.53
2017-06-12T00:26:50.644Z,5.37
2017-06-12T00:29:17.301Z,7.13
2017-06-12T00:31:43.982Z,4.40
2017-06-12T00:34:10.653Z,5.20
2017-06-12T00:36:37.404Z,4.93
2017-06-12T00:39:04.086Z,7.90
2017-06-12T00:41:30.730Z,5.43
2017-06-12T00:43:57.380Z,7.20
2017-06-12T00:46:24.075Z,5.90
2017-06-12T00:48:50.723Z,6.13
2017-06-12T00:51:17.382Z,4.10
2017-06-12T00:53:44.062Z,4.83
2017-06-12T00:56:10.711Z,6.33
2017-06-12T00:58:37.366Z,7.03
2017-06-12T01:01:04.101Z,4.30
2017-06-12T01:03:30.763Z,4.93
2017-06-12T01:05:57.419Z,4.50
2017-06-12T01:08:24.097Z,5.93
2017-06-12T01:10:50.748Z,5.77
2017-06-12T01:13:17.409Z,5.53
2017-06-12T01:15:44.201Z,6.47
2017-06-12T01:18:10.852Z,5.33
2017-06-12T01:20:37.507Z,5.80
2017-06-12T01:23:04.180Z,5.73
2017-06-12T01:25:30.833Z,5.30
2017-06-12T01:27:57.503Z,5.70
2017-06-12T01:30:24.175Z,5.90
2017-06-12T01:32:50.823Z,5.60
2017-06-12T01:35:17.477Z,4.97
2017-06-12T01:37:44.184Z,6.43
2017-06-12T01:40:10.966Z,5.63
2017-06-12T01:42:37.643Z,6.67
2017-06-12T01:45:04.320Z,6.10
2017-06-12T01:47:30.975Z,11.10
2017-06-12T01:49:57.625Z,13.30
2017-06-12T01:52:24.690Z,7.00
2017-06-12T01:54:51.340Z,7.07
2017-06-12T01:57:17.993Z,6.20
2017-06-12T01:59:44.672Z,5.67
2017-06-12T02:02:11.365Z,5.30
2017-06-12T02:04:38.014Z,7.30
2017-06-12T02:07:04.679Z,5.80
2017-06-12T02:09:31.332Z,6.93
2017-06-12T02:11:58.009Z,8.53
2017-06-12T02:14:25.701Z,5.73
2017-06-12T02:16:52.361Z,4.80
2017-06-12T02:19:19.013Z,7.73
2017-06-12T02:21:45.727Z,5.10
2017-06-12T02:24:12.384Z,6.50
2017-06-12T02:26:39.065Z,7.10
2017-06-12T02:29:05.740Z,6.90
2017-06-12T02:31:32.397Z,10.13
2017-06-12T02:33:59.042Z,5.83
2017-06-12T02:36:25.804Z,6.00
2017-06-12T02:38:52.461Z,7.07
2017-06-12T02:41:19.109Z,7.97
2017-06-12T02:43:45.789Z,9.17
2017-06-12T02:46:12.443Z,7.27
2017-06-12T02:48:39.116Z,14.60
2017-06-12T02:51:05.803Z,8.90
2017-06-12T02:53:32.454Z,7.03
2017-06-12T02:55:59.133Z,9.93
2017-06-12T02:58:25.814Z,6.20
2017-06-12T03:00:52.462Z,8.53
2017-06-12T03:03:19.119Z,10.33
2017-06-12T03:05:45.813Z,7.80
2017-06-12T03:08:12.469Z,9.30
2017-06-12T03:10:39.120Z,7.90
2017-06-12T03:13:05.832Z,7.23
2017-06-12T03:15:32.491Z,10.10
2017-06-12T03:17:59.142Z,7.50
2017-06-12T03:20:25.852Z,7.03
2017-06-12T03:22:52.508Z,7.20
2017-06-12T03:25:19.158Z,9.23
2017-06-12T03:27:45.857Z,10.83
2017-06-12T03:30:12.517Z,9.10
2017-06-12T03:32:39.165Z,6.47
2017-06-12T03:35:05.827Z,6.60
2017-06-12T03:37:32.487Z,8.47
2017-06-12T03:39:59.143Z,7.60
2017-06-12T03:42:25.825Z,5.50
2017-06-12T03:44:52.501Z,8.13
2017-06-12T03:47:19.152Z,6.63
2017-06-12T03:49:45.819Z,6.80
2017-06-12T03:52:12.479Z,10.43
2017-06-12T03:54:39.128Z,7.33
2017-06-12T03:57:05.803Z,7.60
2017-06-12T03:59:32.459Z,6.33
2017-06-12T04:01:59.110Z,5.93
2017-06-12T04:04:25.791Z,6.33
2017-06-12T04:06:52.443Z,8.03
2017-06-12T04:09:19.092Z,7.37
2017-06-12T04:11:45.761Z,7.27
2017-06-12T04:14:12.415Z,6.10
2017-06-12T04:16:39.073Z,7.97
2017-06-12T04:19:05.751Z,6.03
2017-06-12T04:21:32.409Z,5.20
2017-06-12T04:23:59.079Z,4.97
2017-06-12T04:26:25.779Z,8.43
2017-06-12T04:28:52.428Z,7.83
2017-06-12T04:31:19.085Z,6.30
2017-06-12T04:33:46.084Z,6.90
2017-06-12T04:36:12.820Z,10.53
2017-06-12T04:38:39.475Z,6.33
2017-06-12T04:41:06.156Z,6.40
2017-06-12T04:43:32.807Z,8.10
2017-06-12T04:45:59.475Z,6.67
2017-06-12T04:48:26.162Z,6.83
2017-06-12T04:50:52.812Z,5.57
2017-06-12T04:53:19.588Z,13.67
2017-06-12T04:55:46.248Z,7.20
2017-06-12T04:58:12.924Z,9.67
2017-06-12T05:00:39.680Z,9.07
2017-06-12T05:03:06.342Z,8.90
2017-06-12T05:05:33.051Z,10.00
2017-06-12T05:07:59.878Z,9.00
2017-06-12T05:10:26.571Z,8.50
2017-06-12T05:12:53.255Z,8.80
2017-06-12T05:15:20.075Z,7.73
2017-06-12T05:17:46.916Z,7.93
2017-06-12T05:20:13.807Z,9.90
2017-06-12T05:22:40.507Z,8.43
2017-06-12T05:25:07.172Z,9.90
2017-06-12T05:27:33.884Z,7.23
2017-06-12T05:30:00.573Z,8.27
2017-06-12T05:32:27.263Z,12.37
2017-06-12T05:34:54.355Z,7.53
2017-06-12T05:37:21.044Z,6.53
2017-06-12T05:39:47.718Z,8.33
2017-06-12T05:42:14.419Z,10.40
2017-06-12T05:44:41.108Z,6.37
2017-06-12T05:47:07.771Z,7.10
2017-06-12T05:49:34.438Z,8.03
2017-06-12T05:52:01.115Z,12.30
2017-06-12T05:54:27.815Z,10.90
2017-06-12T05:56:54.487Z,13.53
2017-06-12T05:59:21.176Z,7.53
2017-06-12T06:01:47.859Z,7.13
2017-06-12T06:04:14.538Z,8.50
2017-06-12T06:06:41.214Z,10.63
2017-06-12T06:09:07.897Z,7.20
2017-06-12T06:11:34.584Z,9.07
2017-06-12T06:14:01.271Z,13.20
2017-06-12T06:16:27.953Z,10.23
2017-06-12T06:18:54.624Z,9.03
2017-06-12T06:21:21.296Z,11.63
2017-06-12T06:23:47.976Z,11.77
2017-06-12T06:26:14.648Z,7.43
2017-06-12T06:28:41.365Z,8.43
2017-06-12T06:31:08.016Z,8.73
2017-06-12T06:33:34.658Z,6.60
2017-06-12T06:36:01.333Z,9.80
2017-06-12T06:38:27.979Z,6.80
2017-06-12T06:40:54.635Z,6.23
2017-06-12T06:43:21.316Z,6.20
2017-06-12T06:45:47.963Z,6.70
2017-06-12T06:48:14.611Z,7.90
2017-06-12T06:50:41.303Z,6.80
2017-06-12T06:53:07.951Z,6.40
2017-06-12T06:55:34.624Z,10.63
2017-06-12T06:58:01.275Z,6.73
2017-06-12T07:00:28.792Z,7.50
2017-06-12T07:02:55.465Z,7.43
2017-06-12T07:05:22.128Z,12.33
2017-06-12T07:07:48.784Z,9.47
2017-06-12T07:10:15.455Z,9.07
2017-06-12T07:12:42.108Z,8.97
2017-06-12T07:15:08.759Z,8.20
2017-06-12T07:17:35.448Z,10.60
2017-06-12T07:20:02.108Z,15.47
2017-06-12T07:22:28.752Z,8.70
2017-06-12T07:24:55.436Z,11.93
2017-06-12T07:27:22.097Z,9.13
2017-06-12T07:29:48.743Z,9.00
2017-06-12T07:32:15.423Z,8.00
2017-06-12T07:34:42.079Z,10.70
2017-06-12T07:37:08.741Z,7.20
2017-06-12T07:39:35.417Z,9.20
2017-06-12T07:42:02.072Z,7.63
2017-06-12T07:44:28.723Z,13.13
2017-06-12T07:46:55.413Z,8.97
2017-06-12T07:49:22.992Z,8.70
2017-06-12T07:51:49.649Z,8.10
2017-06-12T07:54:16.345Z,10.27
2017-06-12T07:56:43.009Z,10.10
2017-06-12T07:59:09.664Z,11.70
2017-06-12T08:01:36.348Z,11.53
2017-06-12T08:04:03.005Z,15.33
2017-06-12T08:06:29.664Z,11.83
2017-06-12T08:08:56.336Z,15.10
2017-06-12T08:11:22.992Z,10.07
2017-06-12T08:13:49.652Z,10.97
2017-06-12T08:16:16.339Z,8.10
2017-06-12T08:18:42.997Z,9.67
2017-06-12T08:21:09.662Z,11.07
2017-06-12T08:23:36.332Z,8.07
2017-06-12T08:26:02.982Z,9.40
2017-06-12T08:28:29.636Z,7.17
2017-06-12T08:30:56.323Z,11.40
2017-06-12T08:33:22.983Z,7.13
2017-06-12T08:35:50.587Z,10.90
2017-06-12T08:38:17.260Z,7.70
2017-06-12T08:40:43.919Z,13.00
2017-06-12T08:43:10.573Z,7.73
2017-06-12T08:45:37.347Z,6.60
2017-06-12T08:48:04.007Z,16.87
2017-06-12T08:50:30.667Z,16.13
2017-06-12T08:52:57.341Z,9.93
2017-06-12T08:55:24.001Z,13.43
2017-06-12T08:57:50.665Z,10.80
2017-06-12T09:00:18.339Z,7.60
2017-06-12T09:02:45.000Z,11.60
2017-06-12T09:05:11.653Z,9.20
2017-06-12T09:07:38.368Z,7.13
2017-06-12T09:10:05.019Z,7.40
2017-06-12T09:12:31.673Z,8.67
2017-06-12T09:14:58.370Z,8.47
2017-06-12T09:17:25.024Z,8.10
2017-06-12T09:19:51.676Z,9.10
2017-06-12T09:22:18.373Z,7.57
2017-06-12T09:24:46.002Z,7.30
2017-06-12T09:27:12.655Z,7.70
2017-06-12T09:29:39.323Z,8.60
2017-06-12T09:32:05.975Z,7.10
2017-06-12T09:34:32.635Z,8.40
2017-06-12T09:36:59.320Z,6.53
2017-06-12T09:39:25.969Z,8.63
2017-06-12T09:41:52.624Z,6.70
2017-06-12T09:44:19.306Z,6.57
2017-06-12T09:46:45.964Z,6.37
2017-06-12T09:49:12.611Z,7.67
2017-06-12T09:51:39.310Z,8.30
2017-06-12T09:54:05.959Z,5.57
2017-06-12T09:56:32.616Z,9.77
2017-06-12T09:58:59.286Z,7.63
2017-06-12T10:01:25.945Z,6.30
2017-06-12T10:03:52.599Z,6.43
2017-06-12T10:06:19.267Z,5.93
2017-06-12T10:08:45.919Z,7.13
2017-06-12T10:11:13.559Z,6.80
2017-06-12T10:13:40.240Z,6.23
2017-06-12T10:16:06.890Z,5.63
2017-06-12T10:18:33.544Z,6.90
2017-06-12T10:21:00.236Z,9.20
2017-06-12T10:23:26.880Z,7.40
2017-06-12T10:25:53.533Z,9.63
2017-06-12T10:28:20.204Z,6.13
2017-06-12T10:30:46.866Z,5.97
2017-06-12T10:33:13.523Z,5.73
2017-06-12T10:35:40.226Z,5.80
2017-06-12T10:38:06.880Z,6.03
2017-06-12T10:40:33.541Z,7.10
2017-06-12T10:43:01.208Z,7.87
2017-06-12T10:45:27.856Z,7.90
2017-06-12T10:47:54.514Z,6.60
2017-06-12T10:50:21.196Z,6.33
2017-06-12T10:52:47.851Z,5.67
2017-06-12T10:55:14.505Z,5.87
2017-06-12T10:57:41.194Z,6.40
2017-06-12T11:00:07.891Z,18.70
2017-06-12T11:02:34.565Z,6.00
2017-06-12T11:05:01.257Z,6.10
2017-06-12T11:07:27.927Z,6.20
2017-06-12T11:09:54.650Z,5.77
2017-06-12T11:12:21.380Z,7.70
2017-06-12T11:14:48.054Z,5.73
2017-06-12T11:17:15.263Z,5.60
2017-06-12T11:19:43.232Z,9.13
2017-06-12T11:22:10.962Z,5.30
2017-06-12T11:24:39.551Z,9.97
2017-06-12T11:27:06.256Z,5.47
2017-06-12T11:29:37.955Z,5.60
2017-06-12T11:32:07.354Z,6.83
2017-06-12T11:34:34.260Z,4.50
2017-06-12T11:37:01.001Z,4.53
2017-06-12T11:39:27.959Z,4.17
2017-06-12T11:41:54.711Z,3.90
2017-06-12T11:44:22.079Z,4.63
2017-06-12T11:46:49.144Z,3.60
2017-06-12T11:49:15.962Z,4.10
2017-06-12T11:51:42.732Z,3.40
2017-06-12T11:54:09.688Z,7.20
2017-06-12T11:56:36.621Z,3.07
2017-06-12T11:59:03.724Z,5.50
2017-06-12T12:01:30.729Z,5.97
2017-06-12T12:03:57.670Z,3.20
2017-06-12T12:06:24.630Z,2.77
2017-06-12T12:08:51.521Z,6.43
2017-06-12T12:11:18.839Z,2.97
2017-06-12T12:13:46.114Z,3.13
2017-06-12T12:16:14.158Z,5.67
2017-06-12T12:18:42.056Z,5.13
2017-06-12T12:21:08.963Z,2.83
2017-06-12T12:23:36.320Z,7.00
2017-06-12T12:26:03.702Z,3.47
2017-06-12T12:28:31.259Z,2.57
2017-06-12T12:30:59.418Z,2.90
2017-06-12T12:33:26.692Z,5.00
2017-06-12T12:35:53.503Z,3.17
2017-06-12T12:38:20.375Z,3.10
2017-06-12T12:40:47.591Z,3.40
2017-06-12T12:43:14.825Z,4.73
2017-06-12T12:45:42.005Z,6.93
2017-06-12T12:48:09.437Z,3.03
2017-06-12T12:50:36.221Z,3.07
2017-06-12T12:53:03.133Z,5.13
2017-06-12T12:55:30.147Z,4.67
2017-06-12T12:57:57.593Z,4.93
2017-06-12T13:00:24.487Z,3.50
2017-06-12T13:02:51.783Z,3.73
2017-06-12T13:05:18.841Z,3.80
2017-06-12T13:07:45.796Z,7.93
2017-06-12T13:10:12.479Z,4.67
2017-06-12T13:12:39.745Z,4.80
2017-06-12T13:15:06.740Z,4.70
2017-06-12T13:17:33.476Z,5.60
2017-06-12T13:20:00.277Z,6.50
2017-06-12T13:22:27.333Z,6.57
2017-06-12T13:24:54.189Z,5.73
2017-06-12T13:27:21.108Z,5.80
2017-06-12T13:29:49.103Z,6.83
2017-06-12T13:32:16.011Z,8.90
2017-06-12T13:34:43.389Z,9.83
2017-06-12T13:37:10.725Z,5.10
2017-06-12T13:39:37.784Z,5.17
2017-06-12T13:42:07.085Z,6.43
2017-06-12T13:44:35.525Z,8.50
2017-06-12T13:47:03.249Z,10.57
2017-06-12T13:49:31.169Z,4.73
2017-06-12T13:51:59.080Z,5.27
2017-06-12T13:54:26.623Z,6.40
2017-06-12T13:56:54.114Z,5.23
2017-06-12T13:59:21.991Z,6.33
2017-06-12T14:01:49.671Z,5.77
2017-06-12T14:04:16.554Z,6.83
2017-06-12T14:06:44.004Z,4.97
2017-06-12T14:09:11.138Z,5.37
2017-06-12T14:11:38.887Z,8.60
2017-06-12T14:14:05.844Z,8.33
2017-06-12T14:16:32.874Z,5.73
2017-06-12T14:18:59.732Z,6.80
2017-06-12T14:21:27.115Z,8.00
2017-06-12T14:23:54.013Z,7.40
2017-06-12T14:26:20.748Z,6.60
2017-06-12T14:28:47.511Z,5.50
2017-06-12T14:31:14.348Z,5.67
2017-06-12T14:33:41.095Z,5.43
2017-06-12T14:36:08.201Z,7.20
2017-06-12T14:38:35.055Z,5.10
2017-06-12T14:41:03.084Z,4.43
2017-06-12T14:43:30.742Z,4.97
2017-06-12T14:45:58.809Z,4.63
2017-06-12T14:48:26.892Z,4.70
2017-06-12T14:50:54.472Z,9.33
2017-06-12T14:53:21.822Z,7.70
2017-06-12T14:55:48.837Z,8.73
2017-06-12T14:58:17.524Z,4.70
2017-06-12T15:00:45.450Z,5.30
2017-06-12T15:03:12.690Z,6.83
2017-06-12T15:05:41.237Z,5.93
2017-06-12T15:08:08.400Z,9.80
2017-06-12T15:10:36.170Z,6.00
2017-06-12T15:13:03.753Z,6.20
2017-06-12T15:15:31.518Z,9.87
2017-06-12T15:17:59.792Z,5.87
2017-06-12T15:20:27.994Z,6.40
2017-06-12T15:22:55.098Z,8.30
2017-06-12T15:25:22.737Z,7.43
2017-06-12T15:27:49.898Z,5.07
2017-06-12T15:30:17.548Z,4.93
2017-06-12T15:32:44.596Z,5.73
2017-06-12T15:35:11.952Z,4.57
2017-06-12T15:37:39.407Z,4.10
2017-06-12T15:40:06.736Z,5.37
2017-06-12T15:42:33.973Z,4.30
2017-06-12T15:45:00.700Z,3.60
2017-06-12T15:47:27.373Z,5.70
2017-06-12T15:49:54.089Z,4.10
2017-06-12T15:52:20.788Z,5.17
2017-06-12T15:54:47.641Z,3.90
2017-06-12T15:57:14.880Z,3.70
2017-06-12T15:59:41.586Z,3.07
2017-06-12T16:02:08.322Z,3.50
2017-06-12T16:04:35.289Z,3.37
2017-06-12T16:07:01.948Z,3.60
2017-06-12T16:09:28.762Z,3.40
2017-06-12T16:11:55.500Z,3.90
2017-06-12T16:14:22.148Z,4.00
2017-06-12T16:16:48.815Z,4.73
2017-06-12T16:19:15.493Z,4.00
2017-06-12T16:21:42.803Z,4.83
2017-06-12T16:24:09.857Z,4.73
2017-06-12T16:26:37.482Z,5.80
2017-06-12T16:29:04.740Z,4.70
2017-06-12T16:31:33.170Z,9.43
2017-06-12T16:34:01.202Z,5.37
2017-06-12T16:36:28.596Z,7.47
2017-06-12T16:38:56.309Z,5.60
2017-06-12T16:41:23.549Z,5.60
2017-06-12T16:43:51.227Z,5.80
2017-06-12T16:46:18.971Z,5.40
2017-06-12T16:48:46.751Z,6.07
2017-06-12T16:51:13.615Z,9.00
2017-06-12T16:53:40.283Z,6.40
2017-06-12T16:56:07.199Z,6.07
2017-06-12T16:58:34.348Z,6.17
2017-06-12T17:01:01.067Z,6.10
2017-06-12T17:03:27.730Z,8.00
2017-06-12T17:05:54.962Z,6.63
2017-06-12T17:08:21.802Z,6.50
2017-06-12T17:10:48.469Z,6.53
2017-06-12T17:13:15.134Z,6.40
2017-06-12T17:15:42.135Z,6.63
2017-06-12T17:18:08.803Z,7.50
2017-06-12T17:20:35.455Z,7.90
2017-06-12T17:23:02.122Z,8.50
2017-06-12T17:25:28.773Z,7.30
2017-06-12T17:27:55.438Z,7.63
2017-06-12T17:30:22.113Z,7.63
2017-06-12T17:32:49.004Z,50.47
2017-06-12T17:35:15.672Z,12.80
2017-06-12T17:37:42.355Z,14.17
2017-06-12T17:40:09.052Z,18.93
2017-06-12T17:42:35.716Z,17.00
2017-06-12T17:45:02.401Z,16.57
2017-06-12T17:47:29.412Z,18.77
2017-06-12T17:49:56.076Z,14.23
2017-06-12T17:52:22.819Z,13.30
2017-06-12T17:54:49.491Z,13.93
2017-06-12T17:57:16.155Z,16.83
2017-06-12T17:59:42.848Z,19.67
2017-06-12T18:02:09.507Z,19.30
2017-06-12T18:04:36.172Z,15.87
2017-06-12T18:07:02.882Z,13.93
2017-06-12T18:09:29.550Z,11.90
2017-06-12T18:11:56.209Z,11.47
2017-06-12T18:14:22.932Z,12.83
2017-06-12T18:16:49.591Z,13.93
2017-06-12T18:19:16.279Z,12.40
2017-06-12T18:21:43.139Z,11.90
2017-06-12T18:24:09.799Z,12.67
2017-06-12T18:26:36.458Z,12.10
2017-06-12T18:29:03.163Z,12.70
2017-06-12T18:31:29.827Z,14.10
2017-06-12T18:33:56.516Z,13.00
2017-06-12T18:36:23.216Z,13.67
2017-06-12T18:38:49.893Z,13.50
2017-06-12T18:41:16.557Z,13.00
2017-06-12T18:43:43.239Z,12.70
2017-06-12T18:46:09.977Z,14.63
2017-06-12T18:48:36.653Z,17.10
2017-06-12T18:51:03.342Z,15.63
2017-06-12T18:53:30.023Z,13.17
2017-06-12T18:55:56.684Z,13.57
2017-06-12T18:58:23.377Z,15.30
2017-06-12T19:00:50.044Z,19.67
2017-06-12T19:03:16.707Z,14.60
2017-06-12T19:05:43.501Z,14.77
2017-06-12T19:08:10.161Z,12.73
2017-06-12T19:10:36.849Z,13.97
2017-06-12T19:13:03.555Z,14.20
2017-06-12T19:15:30.219Z,16.37
2017-06-12T19:17:56.882Z,16.23
2017-06-12T19:20:23.592Z,17.20
2017-06-12T19:22:50.251Z,19.47
2017-06-12T19:25:16.936Z,15.47
2017-06-12T19:27:43.614Z,14.40
2017-06-12T19:30:10.285Z,10.60
2017-06-12T19:32:36.947Z,13.43
2017-06-12T19:35:03.648Z,11.90
2017-06-12T19:37:30.321Z,14.77
2017-06-12T19:39:56.990Z,17.70
2017-06-12T19:42:23.685Z,11.30
2017-06-12T19:44:50.348Z,12.90
2017-06-12T19:47:17.012Z,14.37
2017-06-12T19:49:43.703Z,13.57
2017-06-12T19:52:10.562Z,11.83
2017-06-12T19:54:37.303Z,12.87
2017-06-12T19:57:03.990Z,14.90
2017-06-12T19:59:30.656Z,12.47
2017-06-12T20:01:57.316Z,11.80
2017-06-12T20:04:24.009Z,13.73
2017-06-12T20:06:50.672Z,15.27
2017-06-12T20:09:17.336Z,15.90
2017-06-12T20:11:44.763Z,14.57
2017-06-12T20:14:11.432Z,15.40
2017-06-12T20:16:38.093Z,15.33
2017-06-12T20:19:04.840Z,16.97
2017-06-12T20:21:31.499Z,18.10
2017-06-12T20:23:58.187Z,18.27
2017-06-12T20:26:24.875Z,18.43
2017-06-12T20:28:51.581Z,17.53
2017-06-12T20:31:18.247Z,16.13
2017-06-12T20:33:44.936Z,13.03
2017-06-12T20:36:11.597Z,15.07
2017-06-12T20:38:38.260Z,15.80
2017-06-12T20:41:04.939Z,16.13
2017-06-12T20:43:31.601Z,16.27
2017-06-12T20:45:58.879Z,15.60
2017-06-12T20:48:25.613Z,13.57
2017-06-12T20:50:52.282Z,13.80
2017-06-12T20:53:19.036Z,16.03
2017-06-12T20:55:45.735Z,16.43
2017-06-12T20:58:12.393Z,16.93
2017-06-12T21:00:39.055Z,16.20
2017-06-12T21:03:05.754Z,14.40
2017-06-12T21:05:32.417Z,15.90
2017-06-12T21:07:59.105Z,15.13
2017-06-12T21:10:25.810Z,14.23
2017-06-12T21:12:52.479Z,15.20
2017-06-12T21:15:19.139Z,13.90
2017-06-12T21:17:45.829Z,15.40
2017-06-12T21:20:12.489Z,14.33
2017-06-12T21:22:39.155Z,15.70
2017-06-12T21:25:05.852Z,16.10
2017-06-12T21:27:32.507Z,16.57
2017-06-12T21:29:59.172Z,15.80
2017-06-12T21:32:25.850Z,14.50
2017-06-12T21:34:52.531Z,15.73
2017-06-12T21:37:19.194Z,16.00
2017-06-12T21:39:46.083Z,14.93
2017-06-12T21:42:12.755Z,16.00
2017-06-12T21:44:39.414Z,16.70
2017-06-12T21:47:06.153Z,14.13
2017-06-12T21:49:32.818Z,15.50
2017-06-12T21:51:59.500Z,15.17
2017-06-12T21:54:26.193Z,15.23
2017-06-12T21:56:52.880Z,15.40
2017-06-12T21:59:19.543Z,14.10
2017-06-12T22:01:46.220Z,13.73
2017-06-12T22:04:12.897Z,12.90
2017-06-12T22:06:39.568Z,13.43
2017-06-12T22:09:06.255Z,13.50
2017-06-12T22:11:32.922Z,13.10
2017-06-12T22:13:59.591Z,14.43
2017-06-12T22:16:26.575Z,13.93
2017-06-12T22:18:53.231Z,13.50
2017-06-12T22:21:19.890Z,14.87
2017-06-12T22:23:46.579Z,14.83
2017-06-12T22:26:13.251Z,15.67
2017-06-12T22:28:39.911Z,17.50
2017-06-12T22:31:06.632Z,17.10
2017-06-12T22:33:33.294Z,16.53
2017-06-12T22:35:59.960Z,16.50
2017-06-12T22:38:26.671Z,17.83
2017-06-12T22:40:53.336Z,18.90
2017-06-12T22:43:20.006Z,18.00
2017-06-12T22:45:46.697Z,18.03
2017-06-12T22:48:13.357Z,19.50
2017-06-12T22:50:40.037Z,18.03
2017-06-12T22:53:06.733Z,18.80
2017-06-12T22:55:33.416Z,17.37
2017-06-12T22:58:00.076Z,18.90
2017-06-12T23:00:26.774Z,18.57
2017-06-12T23:02:53.432Z,19.40
2017-06-12T23:05:20.092Z,20.40
2017-06-12T23:07:46.771Z,18.70
2017-06-12T23:10:13.452Z,19.60
2017-06-12T23:12:40.120Z,17.60
2017-06-12T23:15:06.795Z,17.60
2017-06-12T23:17:33.463Z,18.50
2017-06-12T23:20:00.120Z,19.70
2017-06-12T23:22:26.811Z,19.00
2017-06-12T23:24:53.478Z,20.73
2017-06-12T23:27:25.975Z,20.70
2017-06-12T23:29:52.678Z,21.20
2017-06-12T23:32:19.337Z,20.13
2017-06-12T23:34:46.002Z,21.70
2017-06-12T23:37:12.697Z,25.13
2017-06-12T23:39:39.364Z,19.67
2017-06-12T23:42:06.026Z,18.20
2017-06-12T23:44:32.712Z,18.10
2017-06-12T23:46:59.376Z,17.70
2017-06-12T23:49:26.034Z,17.23
2017-06-12T23:51:52.765Z,18.57
2017-06-12T23:54:19.428Z,18.13
2017-06-12T23:56:46.092Z,18.93
2017-06-12T23:59:12.795Z,17.67
